Time;durP1;ratioP1;P1;durP2;ratioP2;P2;SDS_P1;SDS_P2;PMS_P1;PMS_P2;Temp;Humidity;BMP_temperature;BMP_pressure;BME280_temperature;BME280_humidity;BME280_pressure;Samples;Min_cycle;Max_cycle;Signal;HPM_P1;HPM_P2
2023/05/07 00:05:12;;;;;;;15.60;12.50;;;;;;;9.90;100.00;98688.84;15290204;19;20090;-75
2023/05/07 00:10:37;;;;;;;13.23;11.68;;;;;;;9.93;100.00;98692.06;15289668;19;20011;-75
2023/05/07 00:16:02;;;;;;;13.60;11.50;;;;;;;9.93;100.00;98696.63;15290704;19;20018;-74
2023/05/07 00:21:30;;;;;;;12.00;10.80;;;;;;;9.97;100.00;98708.75;15290719;19;20041;-73
2023/05/07 00:26:55;;;;;;;11.77;10.57;;;;;;;9.97;100.00;98711.44;15287656;19;20011;-74
2023/05/07 00:32:20;;;;;;;12.93;11.13;;;;;;;9.94;100.00;98696.47;15286822;19;20006;-74
2023/05/07 00:37:48;;;;;;;12.55;11.00;;;;;;;9.93;100.00;98718.16;15290007;19;20014;-74
2023/05/07 00:43:13;;;;;;;12.60;11.25;;;;;;;9.95;100.00;98708.06;15286392;19;20015;-74
2023/05/07 00:48:38;;;;;;;12.20;10.90;;;;;;;9.91;100.00;98685.97;15294457;19;20030;-74
2023/05/07 00:54:07;;;;;;;12.45;11.25;;;;;;;9.95;100.00;98694.59;15310269;19;20010;-74
2023/05/07 00:59:39;;;;;;;10.77;9.65;;;;;;;9.94;100.00;98695.59;15337784;19;20014;-73
2023/05/07 01:05:06;;;;;;;11.35;10.15;;;;;;;9.97;100.00;98703.38;15281846;19;20014;-75
2023/05/07 01:10:34;;;;;;;11.20;9.60;;;;;;;9.93;100.00;98699.31;15283930;19;20018;-74
2023/05/07 01:15:52;;;;;;;10.18;9.07;;;;;;;9.90;100.00;98705.00;15286972;19;20033;-73
2023/05/07 01:21:20;;;;;;;9.77;8.55;;;;;;;9.93;100.00;98704.69;15284777;19;20021;-74
2023/05/07 01:26:48;;;;;;;10.13;7.95;;;;;;;9.89;100.00;98698.75;15285622;19;20018;-74
2023/05/07 01:32:17;;;;;;;8.93;7.80;;;;;;;9.87;100.00;98693.53;15278212;19;20372;-75
2023/05/07 01:37:43;;;;;;;10.57;8.88;;;;;;;9.85;100.00;98697.38;15283769;19;20014;-75
2023/05/07 01:43:11;;;;;;;10.50;9.00;;;;;;;9.87;100.00;98704.28;15281622;19;20011;-74
2023/05/07 01:48:37;;;;;;;10.13;9.02;;;;;;;9.83;100.00;98694.81;15283758;19;20018;-74
2023/05/07 01:54:02;;;;;;;9.00;8.10;;;;;;;9.78;100.00;98702.50;15286321;19;20078;-74
2023/05/07 01:59:36;;;;;;;7.07;6.15;;;;;;;9.75;100.00;98688.50;15282220;19;20054;-74
2023/05/07 02:05:02;;;;;;;6.90;5.97;;;;;;;9.79;100.00;98708.72;15276599;19;20029;-74
2023/05/07 02:10:28;;;;;;;6.00;5.30;;;;;;;9.84;100.00;98698.38;15280708;19;20049;-74
2023/05/07 02:15:55;;;;;;;5.88;5.30;;;;;;;9.87;100.00;98693.53;15282099;19;20106;-75
2023/05/07 02:21:22;;;;;;;5.55;5.05;;;;;;;9.86;100.00;98697.22;15283389;19;20011;-74
2023/05/07 02:26:48;;;;;;;5.95;5.35;;;;;;;9.89;100.00;98689.84;15284981;19;20084;-74
2023/05/07 02:32:15;;;;;;;6.32;5.72;;;;;;;9.91;100.00;98690.53;15279874;19;20014;-74
2023/05/07 02:37:40;;;;;;;6.18;5.57;;;;;;;9.93;100.00;98689.38;15277850;19;20018;-74
2023/05/07 02:43:06;;;;;;;6.65;5.88;;;;;;;9.92;100.00;98689.53;15277006;19;20078;-74
2023/05/07 02:48:36;;;;;;;6.07;5.47;;;;;;;9.92;100.00;98692.22;15281484;19;20532;-74
2023/05/07 02:54:01;;;;;;;6.18;5.57;;;;;;;9.93;100.00;98693.94;15283442;19;20011;-73
2023/05/07 02:59:26;;;;;;;6.32;5.70;;;;;;;9.91;100.00;98683.28;15285515;19;20022;-74
2023/05/07 03:04:53;;;;;;;6.50;5.50;;;;;;;9.91;100.00;98690.53;15290035;19;20011;-74
2023/05/07 03:10:18;;;;;;;8.15;6.88;;;;;;;9.90;100.00;98691.53;15288859;19;20019;-74
2023/05/07 03:15:42;;;;;;;6.40;5.80;;;;;;;9.85;100.00;98691.97;15294226;19;20021;-74
2023/05/07 03:21:09;;;;;;;7.35;6.65;;;;;;;9.81;100.00;98701.34;15290597;19;20018;-75
2023/05/07 03:26:34;;;;;;;9.30;8.40;;;;;;;9.69;100.00;98714.16;15276258;19;21093;-75
2023/05/07 03:31:59;;;;;;;10.38;9.27;;;;;;;9.60;100.00;98704.25;15283456;19;20422;-76
2023/05/07 03:37:26;;;;;;;11.02;9.18;;;;;;;9.49;100.00;98708.00;15291311;19;20018;-76
2023/05/07 03:42:51;;;;;;;12.10;9.77;;;;;;;9.38;100.00;98717.94;15277595;19;20082;-75
2023/05/07 03:48:18;;;;;;;13.68;10.57;;;;;;;9.29;100.00;98736.78;15291011;19;20018;-75
2023/05/07 03:53:45;;;;;;;12.88;11.00;;;;;;;9.23;100.00;98746.28;15293514;19;20025;-75
2023/05/07 03:59:12;;;;;;;14.40;11.85;;;;;;;9.11;100.00;98753.69;15291130;19;20026;-75
2023/05/07 04:04:38;;;;;;;13.20;10.95;;;;;;;9.04;100.00;98763.28;15306110;19;20102;-76
2023/05/07 04:10:05;;;;;;;13.02;10.63;;;;;;;9.00;100.00;98788.75;15297133;19;20024;-75
2023/05/07 04:15:33;;;;;;;12.20;10.07;;;;;;;8.97;100.00;98778.31;15300418;19;20066;-75
2023/05/07 04:21:00;;;;;;;12.27;9.80;;;;;;;8.90;100.00;98789.59;15361319;19;20019;-76
2023/05/07 04:26:28;;;;;;;11.45;9.20;;;;;;;8.92;100.00;98797.53;15283326;19;20041;-75
2023/05/07 04:31:55;;;;;;;11.18;8.48;;;;;;;8.88;100.00;98802.31;15285875;19;20050;-76
2023/05/07 04:37:23;;;;;;;9.82;8.60;;;;;;;8.87;100.00;98808.72;15289105;19;20383;-75
2023/05/07 04:42:51;;;;;;;9.10;8.20;;;;;;;8.86;100.00;98808.84;15284746;19;20011;-74
2023/05/07 04:48:22;;;;;;;8.82;7.93;;;;;;;8.91;100.00;98811.97;15280251;19;20753;-74
2023/05/07 04:53:49;;;;;;;8.38;7.47;;;;;;;8.89;100.00;98805.88;15288025;19;20086;-75
2023/05/07 04:59:24;;;;;;;10.85;8.35;;;;;;;8.94;100.00;98817.91;15285245;19;20509;-74
2023/05/07 05:04:49;;;;;;;9.52;8.07;;;;;;;8.95;100.00;98818.72;15284405;19;20049;-76
2023/05/07 05:10:16;;;;;;;9.70;8.20;;;;;;;8.99;100.00;98819.31;15290575;19;20368;-76
2023/05/07 05:15:45;;;;;;;8.57;7.70;;;;;;;9.05;100.00;98824.97;15286587;19;20082;-77
2023/05/07 05:21:11;;;;;;;8.05;7.25;;;;;;;9.13;100.00;98826.09;15282540;19;20035;-77
2023/05/07 05:26:41;;;;;;;7.85;7.05;;;;;;;9.16;100.00;98832.03;15284115;19;20060;-75
2023/05/07 05:32:08;;;;;;;8.82;6.55;;;;;;;9.19;100.00;98815.63;15281456;19;20373;-83
2023/05/07 05:37:35;;;;;;;6.80;6.10;;;;;;;9.30;100.00;98803.03;15290801;19;20022;-77
2023/05/07 05:43:01;;;;;;;6.47;5.68;;;;;;;9.41;100.00;98794.78;15295474;19;20086;-77
2023/05/07 05:48:29;;;;;;;5.97;5.38;;;;;;;9.57;100.00;98786.13;15285838;19;20034;-77
2023/05/07 05:53:55;;;;;;;7.07;5.35;;;;;;;9.66;100.00;98789.78;15286605;19;20046;-77
2023/05/07 05:59:20;;;;;;;6.28;5.68;;;;;;;9.62;100.00;98791.06;15297771;19;20014;-75
2023/05/07 06:04:47;;;;;;;6.30;5.70;;;;;;;9.66;100.00;98793.31;15287647;19;20015;-78
2023/05/07 06:10:12;;;;;;;5.95;5.35;;;;;;;9.62;100.00;98788.38;15294305;19;20042;-78
2023/05/07 06:15:38;;;;;;;6.72;6.00;;;;;;;9.66;100.00;98790.59;15287734;19;20118;-74
2023/05/07 06:21:06;;;;;;;6.15;5.55;;;;;;;9.74;100.00;98783.66;15285326;19;20026;-75
2023/05/07 06:26:31;;;;;;;6.97;6.03;;;;;;;9.73;100.00;98780.09;15284275;19;20033;-78
2023/05/07 06:31:57;;;;;;;6.97;5.80;;;;;;;9.74;100.00;98778.28;15289651;19;20024;-76
2023/05/07 06:37:26;;;;;;;6.70;6.00;;;;;;;9.72;100.00;98791.88;15286735;19;20355;-48
2023/05/07 06:42:53;;;;;;;7.65;6.55;;;;;;;9.68;100.00;98803.94;15283280;19;20015;-46
2023/05/07 06:48:26;;;;;;;7.20;6.50;;;;;;;9.69;100.00;98797.56;15274539;19;20420;-49
2023/05/07 06:53:53;;;;;;;7.43;6.65;;;;;;;9.68;100.00;98803.94;15273177;19;20075;-46
2023/05/07 06:59:21;;;;;;;7.25;6.55;;;;;;;9.72;100.00;98802.63;15273596;19;20023;-48
2023/05/07 07:04:41;;;;;;;7.53;6.65;;;;;;;9.70;100.00;98805.47;15274461;19;20047;-47
2023/05/07 07:10:11;;;;;;;8.02;7.00;;;;;;;9.72;100.00;98813.38;15273344;19;20046;-46
2023/05/07 07:15:37;;;;;;;8.73;6.78;;;;;;;9.75;100.00;98818.47;15274851;19;20019;-50
2023/05/07 07:21:02;;;;;;;7.15;6.45;;;;;;;9.81;100.00;98814.34;15274112;19;20467;-49
2023/05/07 07:26:32;;;;;;;7.75;6.95;;;;;;;9.92;100.00;98811.50;15272298;19;20022;-55
2023/05/07 07:31:59;;;;;;;7.38;6.57;;;;;;;10.03;100.00;98815.84;15275964;19;20111;-46
2023/05/07 07:37:25;;;;;;;6.80;6.10;;;;;;;10.10;100.00;98808.88;15272227;19;20010;-48
2023/05/07 07:42:53;;;;;;;6.43;5.80;;;;;;;10.20;100.00;98813.34;15274695;19;20408;-45
2023/05/07 07:48:19;;;;;;;6.85;6.00;;;;;;;10.28;100.00;98816.16;15279878;19;20367;-48
2023/05/07 07:53:44;;;;;;;6.20;5.60;;;;;;;10.27;100.00;98819.84;15286293;19;20014;-48
2023/05/07 07:59:11;;;;;;;7.07;5.70;;;;;;;10.33;100.00;98824.63;15277949;19;20015;-48
2023/05/07 08:04:37;;;;;;;5.78;5.20;;;;;;;10.37;100.00;98817.94;15288028;19;20014;-46
2023/05/07 08:10:02;;;;;;;6.38;5.25;;;;;;;10.53;100.00;98819.16;15280962;19;20117;-46
2023/05/07 08:15:29;;;;;;;5.72;5.20;;;;;;;10.62;100.00;98832.56;15280374;19;20022;-51
2023/05/07 08:20:56;;;;;;;5.30;4.80;;;;;;;10.73;100.00;98827.97;15283009;19;20022;-51
2023/05/07 08:26:21;;;;;;;7.18;4.88;;;;;;;10.83;100.00;98819.81;15283520;19;20018;-51
2023/05/07 08:31:48;;;;;;;4.90;4.40;;;;;;;11.03;100.00;98813.25;15281912;19;20015;-48
2023/05/07 08:37:14;;;;;;;5.05;4.38;;;;;;;11.14;100.00;98814.03;15260989;19;20392;-49
2023/05/07 08:42:41;;;;;;;5.28;4.32;;;;;;;11.08;100.00;98818.19;15286367;19;20011;-46
2023/05/07 08:48:16;;;;;;;5.10;4.65;;;;;;;11.09;100.00;98814.50;15282444;19;20015;-49
2023/05/07 08:53:50;;;;;;;5.00;4.40;;;;;;;11.22;100.00;98824.91;15282988;19;20014;-49
2023/05/07 08:59:17;;;;;;;4.78;4.28;;;;;;;11.36;100.00;98842.38;15277492;19;20020;-47
2023/05/07 09:04:45;;;;;;;4.45;4.05;;;;;;;11.38;100.00;98838.50;15278201;19;20814;-47
2023/05/07 09:10:12;;;;;;;4.15;3.75;;;;;;;11.48;100.00;98842.97;15280606;19;20626;-49
2023/05/07 09:15:37;;;;;;;4.80;4.40;;;;;;;11.43;100.00;98839.91;15285298;19;20021;-47
2023/05/07 09:21:05;;;;;;;4.80;4.30;;;;;;;11.48;100.00;98829.47;15279525;19;20011;-47
2023/05/07 09:26:34;;;;;;;6.15;4.18;;;;;;;11.66;100.00;98832.13;15280378;19;20036;-45
2023/05/07 09:31:59;;;;;;;4.43;4.00;;;;;;;11.68;100.00;98833.69;15284991;19;20025;-50
2023/05/07 09:37:36;;;;;;;5.00;4.10;;;;;;;11.58;100.00;98838.34;15277515;19;20246;-49
2023/05/07 09:43:11;;;;;;;4.70;4.25;;;;;;;11.56;100.00;98840.34;15286657;19;20017;-47
2023/05/07 09:48:46;;;;;;;5.00;4.35;;;;;;;11.47;100.00;98834.03;15280550;19;20014;-51
2023/05/07 09:54:14;;;;;;;4.95;4.45;;;;;;;11.33;100.00;98843.53;15284424;19;20014;-48
2023/05/07 09:59:41;;;;;;;4.63;4.22;;;;;;;11.41;100.00;98843.59;15277562;19;20023;-50
2023/05/07 10:05:14;;;;;;;4.70;4.00;;;;;;;11.40;100.00;98843.75;15281300;19;20031;-50
2023/05/07 10:10:44;;;;;;;4.00;3.67;;;;;;;11.52;100.00;98849.75;15270926;19;20019;-49
2023/05/07 10:16:12;;;;;;;4.20;3.80;;;;;;;11.61;100.00;98847.97;15279344;19;20055;-48
2023/05/07 10:21:39;;;;;;;4.57;4.18;;;;;;;11.61;100.00;98842.56;15281793;19;20021;-47
2023/05/07 10:27:11;;;;;;;4.00;3.60;;;;;;;11.68;100.00;98841.78;15275914;19;20014;-49
2023/05/07 10:32:43;;;;;;;4.07;3.67;;;;;;;11.57;100.00;98848.28;15276453;19;20761;-47
2023/05/07 10:38:14;;;;;;;3.92;3.55;;;;;;;11.61;100.00;98846.09;15278613;19;20021;-49
2023/05/07 10:43:47;;;;;;;4.32;3.90;;;;;;;11.61;100.00;98843.41;15274226;19;20019;-51
2023/05/07 10:49:18;;;;;;;4.32;3.92;;;;;;;11.61;100.00;98851.50;15278780;19;20026;-51
2023/05/07 10:54:48;;;;;;;4.05;3.53;;;;;;;11.79;100.00;98850.63;15280923;19;20014;-45
2023/05/07 11:00:51;;;;;;;3.80;3.50;;;;;;;11.87;100.00;98845.25;15276360;19;20375;-53
2023/05/07 11:06:23;;;;;;;4.57;3.10;;;;;;;11.91;100.00;98841.25;15275146;19;20543;-47
2023/05/07 11:11:57;;;;;;;3.97;3.58;;;;;;;12.04;100.00;98840.00;15272117;19;20086;-48
2023/05/07 11:17:34;;;;;;;3.70;3.25;;;;;;;12.04;100.00;98840.00;15274341;19;20724;-47
2023/05/07 11:22:58;;;;;;;5.25;3.10;;;;;;;12.27;100.00;98835.72;15291254;19;20024;-51
2023/05/07 11:28:30;;;;;;;3.00;2.72;;;;;;;12.49;100.00;98817.22;15286419;19;20546;-50
2023/05/07 11:33:59;;;;;;;3.15;2.65;;;;;;;12.59;100.00;98823.34;15290453;19;20037;-49
2023/05/07 11:39:32;;;;;;;2.90;2.70;;;;;;;12.85;100.00;98825.09;15289778;19;20488;-48
2023/05/07 11:44:56;;;;;;;2.58;2.33;;;;;;;13.05;100.00;98828.31;15286769;19;20086;-53
2023/05/07 11:50:24;;;;;;;2.92;2.63;;;;;;;13.20;100.00;98825.81;15286914;19;20018;-48
2023/05/07 11:55:49;;;;;;;2.70;2.50;;;;;;;13.16;100.00;98819.03;15290249;19;20081;-44
2023/05/07 12:01:16;;;;;;;2.53;2.33;;;;;;;13.45;100.00;98825.84;15291980;19;20081;-49
2023/05/07 12:06:45;;;;;;;2.33;2.15;;;;;;;13.83;100.00;98815.28;15286894;19;20031;-52
2023/05/07 12:12:11;;;;;;;2.50;2.30;;;;;;;14.21;100.00;98817.41;15288899;19;20336;-51
2023/05/07 12:17:35;;;;;;;2.65;2.45;;;;;;;14.01;100.00;98796.13;15282594;19;20006;-50
2023/05/07 12:23:04;;;;;;;2.50;2.30;;;;;;;13.81;100.00;98800.25;15292475;19;20493;-49
2023/05/07 12:28:28;;;;;;;2.38;2.15;;;;;;;13.97;100.00;98818.31;15282088;19;20015;-47
2023/05/07 12:33:53;;;;;;;2.42;2.20;;;;;;;13.93;100.00;98825.94;15279255;19;20011;-46
2023/05/07 12:39:20;;;;;;;2.38;2.17;;;;;;;14.16;100.00;98817.94;15280848;19;20014;-46
2023/05/07 12:44:48;;;;;;;2.63;2.03;;;;;;;14.05;100.00;98818.31;15281402;19;20511;-46
2023/05/07 12:50:15;;;;;;;1.95;1.85;;;;;;;14.07;100.00;98820.84;15272277;19;20359;-47
2023/05/07 12:55:49;;;;;;;2.00;1.80;;;;;;;14.11;100.00;98825.72;15282752;19;20014;-48
2023/05/07 13:01:18;;;;;;;1.90;1.80;;;;;;;14.15;100.00;98829.78;15280908;19;20033;-46
2023/05/07 13:06:44;;;;;;;1.70;1.60;;;;;;;14.20;100.00;98823.84;15279120;19;20375;-47
2023/05/07 13:12:12;;;;;;;1.80;1.60;;;;;;;14.18;100.00;98818.56;15283280;19;20260;-48
2023/05/07 13:17:37;;;;;;;1.88;1.77;;;;;;;14.31;100.00;98828.00;15278761;19;20019;-49
2023/05/07 13:23:04;;;;;;;1.70;1.60;;;;;;;14.10;100.00;98826.75;15274016;19;20106;-49
2023/05/07 13:28:32;;;;;;;3.03;1.80;;;;;;;14.26;100.00;98819.59;15274998;19;20010;-50
2023/05/07 13:33:56;;;;;;;1.60;1.50;;;;;;;14.41;100.00;98815.09;15281327;19;20014;-45
2023/05/07 13:39:22;;;;;;;1.55;1.45;;;;;;;14.61;100.00;98811.97;15284120;19;20035;-49
2023/05/07 13:44:49;;;;;;;3.03;1.10;;;;;;;14.94;100.00;98806.38;15279805;19;20014;-51
2023/05/07 13:50:16;;;;;;;1.25;1.02;;;;;;;15.50;100.00;98802.53;15280113;19;20010;-51
2023/05/07 13:55:41;;;;;;;2.35;1.10;;;;;;;15.80;100.00;98803.41;15275728;19;20438;-50
2023/05/07 14:01:09;;;;;;;1.20;1.10;;;;;;;16.12;100.00;98806.00;15278316;19;20003;-51
2023/05/07 14:06:34;;;;;;;0.90;0.90;;;;;;;16.44;100.00;98796.59;15277314;19;20019;-50
2023/05/07 14:11:59;;;;;;;0.90;0.90;;;;;;;16.49;100.00;98790.59;15281640;19;20024;-52
2023/05/07 14:17:27;;;;;;;0.80;0.80;;;;;;;16.54;100.00;98790.03;15279805;19;20031;-50
2023/05/07 14:22:52;;;;;;;1.25;1.00;;;;;;;16.27;100.00;98776.09;15280353;19;20098;-53
2023/05/07 14:28:16;;;;;;;1.40;1.20;;;;;;;16.24;100.00;98769.16;15272804;19;20081;-51
2023/05/07 14:33:44;;;;;;;1.35;1.20;;;;;;;16.21;100.00;98777.69;15278227;19;20018;-48
2023/05/07 14:39:08;;;;;;;1.50;1.20;;;;;;;15.91;100.00;98785.88;15276732;19;20030;-49
2023/05/07 14:44:33;;;;;;;1.30;1.20;;;;;;;16.04;100.00;98790.63;15278038;19;20043;-51
2023/05/07 14:50:01;;;;;;;1.35;1.25;;;;;;;16.42;100.00;98786.94;15274427;19;20058;-49
2023/05/07 14:55:26;;;;;;;1.50;1.40;;;;;;;16.56;100.00;98796.13;15273022;19;20021;-49
2023/05/07 15:00:51;;;;;;;1.35;1.35;;;;;;;16.43;100.00;98807.66;15266175;19;20019;-44
2023/05/07 15:06:22;;;;;;;1.40;1.30;;;;;;;16.31;100.00;98801.88;15258057;19;20075;-44
2023/05/07 15:11:47;;;;;;;3.10;1.40;;;;;;;16.10;100.00;98817.06;15281563;19;20086;-46
2023/05/07 15:17:12;;;;;;;3.28;1.50;;;;;;;16.22;100.00;98795.69;15281513;19;20017;-44
2023/05/07 15:22:41;;;;;;;1.45;1.20;;;;;;;16.71;100.00;98779.75;15280254;19;20098;-45
2023/05/07 15:28:06;;;;;;;1.58;1.42;;;;;;;17.10;100.00;98783.97;15270864;19;20010;-46
2023/05/07 15:33:30;;;;;;;1.38;1.27;;;;;;;17.44;100.00;98763.31;15267213;19;20038;-48
2023/05/07 15:38:58;;;;;;;2.47;1.60;;;;;;;17.04;100.00;98762.94;15275994;19;20035;-47
2023/05/07 15:44:27;;;;;;;3.65;1.40;;;;;;;16.97;100.00;98760.16;15269867;19;20018;-45
2023/05/07 15:49:53;;;;;;;1.70;1.40;;;;;;;16.86;100.00;98763.38;15271088;19;20711;-44
2023/05/07 15:55:20;;;;;;;3.03;1.40;;;;;;;17.05;100.00;98770.06;15269898;19;20037;-47
2023/05/07 16:00:45;;;;;;;1.60;1.40;;;;;;;17.01;100.00;98774.22;15270403;19;20086;-47
2023/05/07 16:06:17;;;;;;;1.52;1.40;;;;;;;17.01;100.00;98775.06;15269303;19;20379;-46
2023/05/07 16:11:45;;;;;;;2.70;1.50;;;;;;;17.07;100.00;98768.84;15286556;19;20025;-44
2023/05/07 16:17:09;;;;;;;1.52;1.40;;;;;;;17.27;100.00;98779.09;15287834;19;20015;-45
2023/05/07 16:22:35;;;;;;;1.88;1.30;;;;;;;16.71;100.00;98769.69;15285329;19;20021;-44
2023/05/07 16:28:03;;;;;;;1.38;1.27;;;;;;;16.56;100.00;98777.91;15285877;19;20018;-44
2023/05/07 16:33:28;;;;;;;1.30;1.20;;;;;;;16.51;100.00;98780.38;15282429;19;20097;-44
2023/05/07 16:38:52;;;;;;;1.30;1.10;;;;;;;16.29;100.00;98783.00;15287551;19;20022;-46
2023/05/07 16:44:20;;;;;;;1.90;1.23;;;;;;;16.23;100.00;98789.22;15287732;19;20118;-44
2023/05/07 16:49:44;;;;;;;1.85;1.35;;;;;;;16.05;100.00;98799.66;15288641;19;20081;-47
2023/05/07 16:55:10;;;;;;;1.40;1.30;;;;;;;15.83;100.00;98794.91;15288636;19;20011;-44
2023/05/07 17:00:37;;;;;;;3.90;1.58;;;;;;;15.84;100.00;98798.47;15284281;19;20031;-43
2023/05/07 17:06:13;;;;;;;1.42;1.33;;;;;;;15.60;100.00;98788.69;15278546;19;20009;-47
2023/05/07 17:11:38;;;;;;;3.38;1.45;;;;;;;15.38;100.00;98788.56;15278871;19;20017;-47
2023/05/07 17:17:05;;;;;;;1.60;1.50;;;;;;;14.94;100.00;98795.53;15281985;19;20015;-45
2023/05/07 17:22:32;;;;;;;2.00;1.50;;;;;;;14.73;100.00;98805.16;15280151;19;20026;-45
2023/05/07 17:27:58;;;;;;;1.77;1.67;;;;;;;14.63;100.00;98815.34;15280825;19;20054;-45
2023/05/07 17:33:26;;;;;;;1.60;1.50;;;;;;;14.60;100.00;98815.69;15280762;19;20022;-44
2023/05/07 17:38:50;;;;;;;1.42;1.33;;;;;;;14.44;100.00;98817.47;15281982;19;20025;-45
2023/05/07 17:44:15;;;;;;;2.03;1.33;;;;;;;14.23;100.00;98822.63;15282629;19;20014;-44
2023/05/07 17:49:42;;;;;;;1.30;1.20;;;;;;;13.95;100.00;98831.19;15286071;19;20321;-45
2023/05/07 17:55:08;;;;;;;2.05;1.25;;;;;;;13.65;100.00;98825.50;15281601;19;20014;-44
2023/05/07 18:00:32;;;;;;;1.42;1.20;;;;;;;13.38;100.00;98833.78;15286936;19;20082;-46
2023/05/07 18:06:06;;;;;;;1.45;1.35;;;;;;;13.04;100.00;98831.19;15278437;19;20033;-44
2023/05/07 18:11:32;;;;;;;1.60;1.25;;;;;;;12.67;100.00;98849.56;15275706;19;20359;-45
2023/05/07 18:16:56;;;;;;;1.33;1.23;;;;;;;12.46;100.00;98860.78;15281655;19;20010;-44
2023/05/07 18:22:24;;;;;;;1.85;1.55;;;;;;;12.11;100.00;98863.47;15279904;19;20870;-51
2023/05/07 18:27:48;;;;;;;2.20;1.60;;;;;;;11.91;100.00;98859.28;15284055;19;20018;-45
2023/05/07 18:33:15;;;;;;;2.47;1.50;;;;;;;11.64;100.00;98856.59;15280702;19;20374;-44
2023/05/07 18:38:43;;;;;;;1.65;1.55;;;;;;;11.33;100.00;98848.06;15281900;19;20033;-44
2023/05/07 18:44:08;;;;;;;2.92;1.60;;;;;;;11.19;100.00;98871.06;15275382;19;20026;-43
2023/05/07 18:49:32;;;;;;;2.00;1.80;;;;;;;10.94;100.00;98876.19;15279199;19;20024;-44
2023/05/07 18:55:00;;;;;;;1.85;1.67;;;;;;;10.78;100.00;98883.09;15277003;19;20025;-44
2023/05/07 19:00:25;;;;;;;1.70;1.60;;;;;;;10.66;100.00;98883.47;15281724;19;20014;-44
2023/05/07 19:05:57;;;;;;;4.25;1.60;;;;;;;10.47;100.00;98888.81;15274953;19;20415;-41
2023/05/07 19:11:25;;;;;;;1.65;1.55;;;;;;;10.58;100.00;98897.69;15273335;19;20467;-41
2023/05/07 19:16:49;;;;;;;2.20;1.85;;;;;;;10.37;100.00;98903.28;15278667;19;20014;-43
2023/05/07 19:22:14;;;;;;;2.20;1.83;;;;;;;10.20;100.00;98910.28;15278014;19;20021;-42
2023/05/07 19:27:41;;;;;;;2.92;1.80;;;;;;;10.01;100.00;98917.44;15276065;19;20021;-43
2023/05/07 19:33:06;;;;;;;2.10;1.90;;;;;;;9.87;100.00;98919.59;15272830;19;20037;-43
2023/05/07 19:38:30;;;;;;;3.58;2.00;;;;;;;9.71;100.00;98925.56;15282848;19;20035;-43
2023/05/07 19:43:58;;;;;;;2.45;2.17;;;;;;;9.55;100.00;98927.97;15288401;19;20019;-42
2023/05/07 19:49:22;;;;;;;2.78;2.35;;;;;;;9.38;100.00;98935.78;15287261;19;20037;-44
2023/05/07 19:54:47;;;;;;;2.60;2.40;;;;;;;9.29;100.00;98943.81;15291025;19;20025;-44
2023/05/07 20:00:16;;;;;;;2.60;2.40;;;;;;;9.15;100.00;98935.16;15299014;19;20022;-45
2023/05/07 20:05:47;;;;;;;2.80;2.60;;;;;;;9.06;100.00;98955.66;15289788;19;20624;-41
2023/05/07 20:11:13;;;;;;;2.60;2.40;;;;;;;9.00;100.00;98958.06;15291229;19;20081;-43
2023/05/07 20:16:47;;;;;;;3.20;2.75;;;;;;;8.91;100.00;98955.22;15294394;19;20029;-41
2023/05/07 20:22:12;;;;;;;4.10;2.67;;;;;;;8.79;100.00;98948.25;15288018;19;20025;-41
2023/05/07 20:27:38;;;;;;;2.92;2.55;;;;;;;8.71;100.00;98956.97;15291143;19;20030;-41
2023/05/07 20:33:06;;;;;;;3.30;3.00;;;;;;;8.62;100.00;98971.22;15289935;19;20043;-41
2023/05/07 20:38:32;;;;;;;3.00;2.80;;;;;;;8.52;100.00;98965.84;15292651;19;20018;-41
2023/05/07 20:44:04;;;;;;;4.20;3.00;;;;;;;8.44;100.00;98970.97;15288868;19;20029;-42
2023/05/07 20:49:31;;;;;;;3.10;2.80;;;;;;;8.36;100.00;98968.13;15289881;19;20026;-41
2023/05/07 20:54:55;;;;;;;3.15;2.92;;;;;;;8.21;100.00;98975.69;15281980;19;20086;-42
2023/05/07 21:00:20;;;;;;;3.13;2.92;;;;;;;8.12;100.00;98974.63;15290169;19;20082;-41
2023/05/07 21:05:48;;;;;;;3.55;3.25;;;;;;;8.02;100.00;98988.84;15274147;19;20014;-43
2023/05/07 21:11:12;;;;;;;3.58;3.20;;;;;;;7.94;100.00;98988.63;15299488;19;20025;-45
2023/05/07 21:16:37;;;;;;;3.50;3.20;;;;;;;7.83;100.00;98991.38;15322465;19;20413;-44
2023/05/07 21:22:04;;;;;;;3.53;3.22;;;;;;;7.75;100.00;98996.53;15291544;19;20042;-44
2023/05/07 21:27:29;;;;;;;4.38;3.00;;;;;;;7.67;100.00;98990.00;15288784;19;20018;-45
2023/05/07 21:32:54;;;;;;;3.30;3.00;;;;;;;7.62;100.00;98996.72;15300892;19;20054;-46
2023/05/07 21:38:22;;;;;;;3.92;3.63;;;;;;;7.52;100.00;98997.50;15306570;19;20475;-47
2023/05/07 21:43:46;;;;;;;3.60;3.30;;;;;;;7.47;100.00;98996.16;15286736;19;20014;-44
2023/05/07 21:49:11;;;;;;;4.05;3.40;;;;;;;7.37;100.00;99009.50;15285787;19;20014;-51
2023/05/07 21:54:38;;;;;;;4.72;3.42;;;;;;;7.32;100.00;99012.56;15282852;19;20038;-44
2023/05/07 22:00:03;;;;;;;3.47;3.17;;;;;;;7.27;100.00;99004.03;15286036;19;20022;-47
2023/05/07 22:05:35;;;;;;;3.72;3.42;;;;;;;7.23;100.00;99018.66;15284581;19;20450;-44
2023/05/07 22:11:03;;;;;;;3.90;3.60;;;;;;;7.17;100.00;99017.34;15283301;19;20038;-44
2023/05/07 22:16:29;;;;;;;3.47;3.28;;;;;;;7.11;100.00;99007.09;15284827;19;20780;-44
2023/05/07 22:21:53;;;;;;;4.10;3.80;;;;;;;7.09;100.00;99017.97;15282117;19;20035;-42
2023/05/07 22:27:21;;;;;;;3.92;3.53;;;;;;;7.05;100.00;99016.50;15283872;19;20018;-44
2023/05/07 22:32:46;;;;;;;4.00;3.70;;;;;;;7.03;100.00;99018.44;15277604;19;20046;-44
2023/05/07 22:38:11;;;;;;;4.03;3.72;;;;;;;7.01;100.00;99025.75;15278175;19;20014;-43
2023/05/07 22:43:38;;;;;;;4.10;3.65;;;;;;;6.98;100.00;99015.31;15280627;19;20058;-43
2023/05/07 22:49:04;;;;;;;4.20;3.80;;;;;;;6.93;100.00;99028.19;15281226;19;20021;-43
2023/05/07 22:54:28;;;;;;;4.10;3.70;;;;;;;6.89;100.00;99024.06;15280890;19;20106;-43
2023/05/07 22:59:56;;;;;;;4.38;3.97;;;;;;;6.82;100.00;99020.16;15282024;19;20025;-43
2023/05/07 23:05:27;;;;;;;4.20;3.80;;;;;;;6.79;100.00;99018.59;15275334;19;20014;-45
2023/05/07 23:10:51;;;;;;;4.37;4.07;;;;;;;6.75;100.00;99015.31;15282114;19;20045;-45
2023/05/07 23:16:19;;;;;;;4.50;3.80;;;;;;;6.70;100.00;99020.19;15288816;19;20023;-44
2023/05/07 23:21:43;;;;;;;4.80;4.40;;;;;;;6.64;100.00;99023.34;15296949;19;20031;-45
2023/05/07 23:27:12;;;;;;;4.20;3.90;;;;;;;6.61;100.00;99028.94;15298000;19;20029;-46
2023/05/07 23:32:39;;;;;;;5.30;3.97;;;;;;;6.58;100.00;99021.16;15292762;19;20019;-43
2023/05/07 23:38:04;;;;;;;4.80;4.40;;;;;;;6.52;100.00;99024.31;15294053;19;20022;-43
2023/05/07 23:43:29;;;;;;;4.65;4.28;;;;;;;6.48;100.00;99029.91;15294239;19;20674;-45
2023/05/07 23:48:57;;;;;;;4.78;4.38;;;;;;;6.46;100.00;99025.66;15291549;19;20020;-45
2023/05/07 23:54:22;;;;;;;5.03;4.60;;;;;;;6.41;100.00;99025.97;15290299;19;20040;-43
2023/05/07 23:59:47;;;;;;;4.80;4.40;;;;;;;6.38;100.00;99020.91;15294322;19;20391;-43
